sensor_id;sensor_type;location;lat;lon;timestamp;pressure;altitude;pressure_sealevel;temperature;humidity
12799;BME280;19250;42.646;26.980;2023-05-16T00:01:01;98852.63;;;16.02;100.00
12799;BME280;19250;42.646;26.980;2023-05-16T00:03:29;98846.44;;;16.08;100.00
12799;BME280;19250;42.646;26.980;2023-05-16T00:05:57;98836.97;;;16.19;100.00
12799;BME280;19250;42.646;26.980;2023-05-16T00:08:24;98845.28;;;15.62;100.00
12799;BME280;19250;42.646;26.980;2023-05-16T00:10:51;98845.84;;;15.57;100.00
12799;BME280;19250;42.646;26.980;2023-05-16T00:13:18;98863.44;;;15.60;100.00
12799;BME280;19250;42.646;26.980;2023-05-16T00:15:51;98870.91;;;15.22;100.00
12799;BME280;19250;42.646;26.980;2023-05-16T00:18:19;98865.31;;;15.87;100.00
12799;BME280;19250;42.646;26.980;2023-05-16T00:20:47;98870.50;;;16.16;100.00
12799;BME280;19250;42.646;26.980;2023-05-16T00:23:15;98869.41;;;16.39;100.00
12799;BME280;19250;42.646;26.980;2023-05-16T00:25:42;98834.03;;;16.07;100.00
12799;BME280;19250;42.646;26.980;2023-05-16T00:28:11;98865.69;;;16.12;100.00
12799;BME280;19250;42.646;26.980;2023-05-16T00:30:38;98865.19;;;16.29;100.00
12799;BME280;19250;42.646;26.980;2023-05-16T00:33:07;98860.28;;;16.40;100.00
12799;BME280;19250;42.646;26.980;2023-05-16T00:35:34;98864.09;;;16.17;100.00
12799;BME280;19250;42.646;26.980;2023-05-16T00:38:01;98858.00;;;16.09;100.00
12799;BME280;19250;42.646;26.980;2023-05-16T00:40:29;98851.19;;;16.06;100.00
12799;BME280;19250;42.646;26.980;2023-05-16T00:42:56;98846.06;;;16.18;100.00
12799;BME280;19250;42.646;26.980;2023-05-16T00:45:23;98811.31;;;15.82;99.74
12799;BME280;19250;42.646;26.980;2023-05-16T00:47:51;98852.63;;;16.02;98.94
12799;BME280;19250;42.646;26.980;2023-05-16T00:50:19;98834.94;;;15.93;96.95
12799;BME280;19250;42.646;26.980;2023-05-16T00:52:47;98832.25;;;15.87;98.06
12799;BME280;19250;42.646;26.980;2023-05-16T00:55:15;98830.56;;;15.86;97.27
12799;BME280;19250;42.646;26.980;2023-05-16T00:57:42;98822.94;;;15.89;94.96
12799;BME280;19250;42.646;26.980;2023-05-16T01:00:10;98828.19;;;16.04;91.66
12799;BME280;19250;42.646;26.980;2023-05-16T01:02:40;98818.56;;;15.88;91.71
12799;BME280;19250;42.646;26.980;2023-05-16T01:05:07;98813.16;;;15.82;93.55
12799;BME280;19250;42.646;26.980;2023-05-16T01:07:36;98812.41;;;15.94;94.31
12799;BME280;19250;42.646;26.980;2023-05-16T01:10:05;98799.09;;;15.79;94.41
12799;BME280;19250;42.646;26.980;2023-05-16T01:12:36;98790.31;;;15.99;94.39
12799;BME280;19250;42.646;26.980;2023-05-16T01:15:09;98790.84;;;15.88;93.48
12799;BME280;19250;42.646;26.980;2023-05-16T01:17:47;98798.19;;;15.23;100.00
12799;BME280;19250;42.646;26.980;2023-05-16T01:20:29;98795.03;;;15.13;100.00
12799;BME280;19250;42.646;26.980;2023-05-16T01:23:05;98794.94;;;14.86;100.00
12799;BME280;19250;42.646;26.980;2023-05-16T01:25:45;98794.09;;;14.64;100.00
12799;BME280;19250;42.646;26.980;2023-05-16T01:28:24;98786.84;;;15.00;100.00
12799;BME280;19250;42.646;26.980;2023-05-16T01:30:52;98793.50;;;14.68;100.00
12799;BME280;19250;42.646;26.980;2023-05-16T01:33:19;98790.66;;;14.70;100.00
12799;BME280;19250;42.646;26.980;2023-05-16T01:35:57;98763.88;;;15.19;100.00
12799;BME280;19250;42.646;26.980;2023-05-16T01:38:26;98772.56;;;15.00;100.00
12799;BME280;19250;42.646;26.980;2023-05-16T01:41:00;98798.50;;;15.14;100.00
12799;BME280;19250;42.646;26.980;2023-05-16T01:43:33;98786.00;;;15.70;100.00
12799;BME280;19250;42.646;26.980;2023-05-16T01:46:14;98745.66;;;15.70;100.00
12799;BME280;19250;42.646;26.980;2023-05-16T01:48:50;98789.59;;;15.84;100.00
12799;BME280;19250;42.646;26.980;2023-05-16T01:51:20;98783.03;;;15.93;100.00
12799;BME280;19250;42.646;26.980;2023-05-16T01:53:49;98771.09;;;16.02;100.00
12799;BME280;19250;42.646;26.980;2023-05-16T01:56:18;98781.38;;;15.92;100.00
12799;BME280;19250;42.646;26.980;2023-05-16T01:58:49;98778.84;;;15.84;100.00
12799;BME280;19250;42.646;26.980;2023-05-16T02:01:18;98765.09;;;15.72;100.00
12799;BME280;19250;42.646;26.980;2023-05-16T02:03:45;98780.19;;;15.45;100.00
12799;BME280;19250;42.646;26.980;2023-05-16T02:06:12;98777.69;;;15.65;100.00
12799;BME280;19250;42.646;26.980;2023-05-16T02:08:39;98773.25;;;15.30;100.00
12799;BME280;19250;42.646;26.980;2023-05-16T02:11:07;98774.97;;;15.37;100.00
12799;BME280;19250;42.646;26.980;2023-05-16T02:13:34;98764.22;;;15.58;100.00
12799;BME280;19250;42.646;26.980;2023-05-16T02:16:03;98766.94;;;15.65;100.00
12799;BME280;19250;42.646;26.980;2023-05-16T02:18:30;98763.13;;;15.53;100.00
12799;BME280;19250;42.646;26.980;2023-05-16T02:20:58;98774.94;;;15.58;100.00
12799;BME280;19250;42.646;26.980;2023-05-16T02:23:25;98771.81;;;15.83;100.00
12799;BME280;19250;42.646;26.980;2023-05-16T02:25:52;98765.69;;;15.95;100.00
12799;BME280;19250;42.646;26.980;2023-05-16T02:28:19;98764.91;;;15.46;100.00
12799;BME280;19250;42.646;26.980;2023-05-16T02:30:55;98768.34;;;15.61;100.00
12799;BME280;19250;42.646;26.980;2023-05-16T02:33:24;98765.50;;;15.69;100.00
12799;BME280;19250;42.646;26.980;2023-05-16T02:35:52;98775.25;;;16.04;100.00
12799;BME280;19250;42.646;26.980;2023-05-16T02:38:19;98768.94;;;15.91;100.00
12799;BME280;19250;42.646;26.980;2023-05-16T02:40:46;98772.19;;;16.14;100.00
12799;BME280;19250;42.646;26.980;2023-05-16T02:43:14;98766.94;;;16.47;100.00
12799;BME280;19250;42.646;26.980;2023-05-16T02:45:41;98766.09;;;16.46;100.00
12799;BME280;19250;42.646;26.980;2023-05-16T02:48:08;98752.13;;;16.16;100.00
12799;BME280;19250;42.646;26.980;2023-05-16T02:50:38;98778.84;;;16.24;100.00
12799;BME280;19250;42.646;26.980;2023-05-16T02:53:07;98787.63;;;16.46;100.00
12799;BME280;19250;42.646;26.980;2023-05-16T02:55:34;98793.63;;;16.48;100.00
12799;BME280;19250;42.646;26.980;2023-05-16T02:58:01;98786.91;;;16.24;100.00
12799;BME280;19250;42.646;26.980;2023-05-16T03:00:29;98790.09;;;16.00;100.00
12799;BME280;19250;42.646;26.980;2023-05-16T03:02:56;98786.66;;;15.51;100.00
12799;BME280;19250;42.646;26.980;2023-05-16T03:05:24;98798.81;;;15.68;100.00
12799;BME280;19250;42.646;26.980;2023-05-16T03:07:52;98792.03;;;15.78;100.00
12799;BME280;19250;42.646;26.980;2023-05-16T03:10:19;98758.69;;;15.45;100.00
12799;BME280;19250;42.646;26.980;2023-05-16T03:12:47;98786.56;;;15.38;100.00
12799;BME280;19250;42.646;26.980;2023-05-16T03:15:14;98782.84;;;15.66;100.00
12799;BME280;19250;42.646;26.980;2023-05-16T03:17:41;98777.19;;;15.83;100.00
12799;BME280;19250;42.646;26.980;2023-05-16T03:20:10;98774.13;;;15.58;100.00
12799;BME280;19250;42.646;26.980;2023-05-16T03:22:37;98776.22;;;15.62;100.00
12799;BME280;19250;42.646;26.980;2023-05-16T03:25:07;98779.25;;;15.87;100.00
12799;BME280;19250;42.646;26.980;2023-05-16T03:27:34;98787.97;;;15.89;100.00
12799;BME280;19250;42.646;26.980;2023-05-16T03:30:01;98783.22;;;15.91;100.00
12799;BME280;19250;42.646;26.980;2023-05-16T03:32:28;98791.06;;;15.86;100.00
12799;BME280;19250;42.646;26.980;2023-05-16T03:34:56;98775.88;;;16.06;100.00
12799;BME280;19250;42.646;26.980;2023-05-16T03:37:23;98757.75;;;15.87;100.00
12799;BME280;19250;42.646;26.980;2023-05-16T03:39:51;98779.44;;;15.79;100.00
12799;BME280;19250;42.646;26.980;2023-05-16T03:42:19;98787.41;;;16.00;100.00
12799;BME280;19250;42.646;26.980;2023-05-16T03:44:46;98786.09;;;16.24;100.00
12799;BME280;19250;42.646;26.980;2023-05-16T03:47:14;98790.53;;;16.45;100.00
12799;BME280;19250;42.646;26.980;2023-05-16T03:49:41;98793.44;;;16.50;100.00
12799;BME280;19250;42.646;26.980;2023-05-16T03:52:08;98804.34;;;16.28;100.00
12799;BME280;19250;42.646;26.980;2023-05-16T03:54:35;98800.16;;;16.67;100.00
12799;BME280;19250;42.646;26.980;2023-05-16T03:57:03;98800.69;;;16.97;100.00
12799;BME280;19250;42.646;26.980;2023-05-16T03:59:32;98803.19;;;17.11;100.00
12799;BME280;19250;42.646;26.980;2023-05-16T04:01:59;98801.06;;;17.00;100.00
12799;BME280;19250;42.646;26.980;2023-05-16T04:04:26;98793.81;;;16.81;100.00
12799;BME280;19250;42.646;26.980;2023-05-16T04:06:54;98785.28;;;16.77;100.00
12799;BME280;19250;42.646;26.980;2023-05-16T04:09:21;98782.63;;;16.97;100.00
12799;BME280;19250;42.646;26.980;2023-05-16T04:11:48;98781.19;;;16.95;100.00
12799;BME280;19250;42.646;26.980;2023-05-16T04:14:16;98787.34;;;16.82;100.00
12799;BME280;19250;42.646;26.980;2023-05-16T04:16:45;98774.78;;;17.22;99.85
12799;BME280;19250;42.646;26.980;2023-05-16T04:19:12;98781.41;;;17.00;100.00
12799;BME280;19250;42.646;26.980;2023-05-16T04:21:39;98776.22;;;16.98;100.00
12799;BME280;19250;42.646;26.980;2023-05-16T04:24:07;98762.47;;;16.60;100.00
12799;BME280;19250;42.646;26.980;2023-05-16T04:26:35;98725.38;;;16.56;100.00
12799;BME280;19250;42.646;26.980;2023-05-16T04:29:02;98756.50;;;16.78;100.00
12799;BME280;19250;42.646;26.980;2023-05-16T04:31:29;98756.91;;;16.75;100.00
12799;BME280;19250;42.646;26.980;2023-05-16T04:34:01;98758.19;;;17.05;100.00
12799;BME280;19250;42.646;26.980;2023-05-16T04:36:28;98751.16;;;17.24;100.00
12799;BME280;19250;42.646;26.980;2023-05-16T04:38:56;98756.97;;;17.54;99.36
12799;BME280;19250;42.646;26.980;2023-05-16T04:41:23;98747.44;;;17.51;97.00
12799;BME280;19250;42.646;26.980;2023-05-16T04:43:50;98753.66;;;17.65;95.34
12799;BME280;19250;42.646;26.980;2023-05-16T04:46:18;98747.00;;;17.74;93.39
12799;BME280;19250;42.646;26.980;2023-05-16T04:48:45;98752.16;;;17.88;89.20
12799;BME280;19250;42.646;26.980;2023-05-16T04:51:14;98756.69;;;18.01;84.61
12799;BME280;19250;42.646;26.980;2023-05-16T04:53:41;98758.16;;;17.97;82.32
12799;BME280;19250;42.646;26.980;2023-05-16T04:56:08;98766.00;;;18.12;80.81
12799;BME280;19250;42.646;26.980;2023-05-16T04:58:36;98761.22;;;18.07;81.51
12799;BME280;19250;42.646;26.980;2023-05-16T05:01:03;98754.31;;;18.31;80.38
12799;BME280;19250;42.646;26.980;2023-05-16T05:03:31;98762.63;;;18.23;80.39
12799;BME280;19250;42.646;26.980;2023-05-16T05:05:59;98757.88;;;18.18;79.65
12799;BME280;19250;42.646;26.980;2023-05-16T05:08:28;98746.66;;;18.21;81.97
12799;BME280;19250;42.646;26.980;2023-05-16T05:10:55;98745.41;;;18.17;81.83
12799;BME280;19250;42.646;26.980;2023-05-16T05:13:22;98728.63;;;18.15;83.57
12799;BME280;19250;42.646;26.980;2023-05-16T05:15:49;98726.97;;;18.14;84.57
12799;BME280;19250;42.646;26.980;2023-05-16T05:18:17;98691.56;;;17.91;86.68
12799;BME280;19250;42.646;26.980;2023-05-16T05:20:44;98721.34;;;18.67;84.73
12799;BME280;19250;42.646;26.980;2023-05-16T05:23:12;98712.88;;;18.88;84.57
12799;BME280;19250;42.646;26.980;2023-05-16T05:25:40;98718.66;;;18.60;82.81
12799;BME280;19250;42.646;26.980;2023-05-16T05:28:07;98723.06;;;18.55;81.82
12799;BME280;19250;42.646;26.980;2023-05-16T05:30:34;98734.84;;;18.67;76.53
12799;BME280;19250;42.646;26.980;2023-05-16T05:33:02;98735.72;;;18.92;71.08
12799;BME280;19250;42.646;26.980;2023-05-16T05:35:29;98744.16;;;18.71;68.68
12799;BME280;19250;42.646;26.980;2023-05-16T05:37:56;98744.75;;;19.35;65.45
12799;BME280;19250;42.646;26.980;2023-05-16T05:40:23;98749.41;;;20.14;69.58
12799;BME280;19250;42.646;26.980;2023-05-16T05:42:52;98753.00;;;19.90;73.34
12799;BME280;19250;42.646;26.980;2023-05-16T05:45:19;98764.28;;;19.87;72.98
12799;BME280;19250;42.646;26.980;2023-05-16T05:47:46;98764.88;;;20.25;69.52
12799;BME280;19250;42.646;26.980;2023-05-16T05:50:14;98761.44;;;20.54;65.19
12799;BME280;19250;42.646;26.980;2023-05-16T05:52:41;98766.16;;;20.04;66.01
12799;BME280;19250;42.646;26.980;2023-05-16T05:55:09;98764.34;;;20.17;64.53
12799;BME280;19250;42.646;26.980;2023-05-16T05:57:36;98773.78;;;20.50;62.32
12799;BME280;19250;42.646;26.980;2023-05-16T06:00:06;98772.84;;;20.20;63.39
12799;BME280;19250;42.646;26.980;2023-05-16T06:02:34;98775.31;;;20.58;58.12
12799;BME280;19250;42.646;26.980;2023-05-16T06:05:01;98775.72;;;20.43;57.51
12799;BME280;19250;42.646;26.980;2023-05-16T06:07:29;98786.63;;;20.37;54.73
12799;BME280;19250;42.646;26.980;2023-05-16T06:09:56;98797.97;;;21.11;52.45
12799;BME280;19250;42.646;26.980;2023-05-16T06:12:24;98805.41;;;21.57;49.54
12799;BME280;19250;42.646;26.980;2023-05-16T06:14:51;98798.81;;;21.77;48.34
12799;BME280;19250;42.646;26.980;2023-05-16T06:17:20;98798.19;;;21.51;49.38
12799;BME280;19250;42.646;26.980;2023-05-16T06:19:47;98774.59;;;21.52;48.60
12799;BME280;19250;42.646;26.980;2023-05-16T06:22:14;98792.91;;;21.80;48.36
12799;BME280;19250;42.646;26.980;2023-05-16T06:24:41;98794.22;;;22.12;46.76
12799;BME280;19250;42.646;26.980;2023-05-16T06:27:09;98785.06;;;22.53;46.13
12799;BME280;19250;42.646;26.980;2023-05-16T06:29:36;98786.56;;;23.00;43.81
12799;BME280;19250;42.646;26.980;2023-05-16T06:32:04;98777.41;;;23.06;44.05
12799;BME280;19250;42.646;26.980;2023-05-16T06:34:32;98773.00;;;23.17;43.81
12799;BME280;19250;42.646;26.980;2023-05-16T06:36:59;98773.34;;;22.52;45.02
12799;BME280;19250;42.646;26.980;2023-05-16T06:39:28;98744.72;;;22.61;43.74
12799;BME280;19250;42.646;26.980;2023-05-16T06:41:55;98764.72;;;22.95;43.59
12799;BME280;19250;42.646;26.980;2023-05-16T06:44:22;98752.09;;;22.49;42.17
12799;BME280;19250;42.646;26.980;2023-05-16T06:46:50;98770.28;;;21.97;45.71
12799;BME280;19250;42.646;26.980;2023-05-16T06:49:18;98770.44;;;20.96;47.43
12799;BME280;19250;42.646;26.980;2023-05-16T06:51:46;98769.88;;;21.06;47.70
12799;BME280;19250;42.646;26.980;2023-05-16T06:54:13;98761.34;;;21.44;49.89
12799;BME280;19250;42.646;26.980;2023-05-16T06:56:40;98767.81;;;21.20;53.25
12799;BME280;19250;42.646;26.980;2023-05-16T06:59:08;98759.00;;;21.47;53.51
12799;BME280;19250;42.646;26.980;2023-05-16T07:01:35;98757.72;;;21.50;56.45
12799;BME280;19250;42.646;26.980;2023-05-16T07:04:02;98759.84;;;21.59;57.16
12799;BME280;19250;42.646;26.980;2023-05-16T07:06:29;98758.44;;;21.68;60.57
12799;BME280;19250;42.646;26.980;2023-05-16T07:08:58;98750.41;;;21.50;64.11
12799;BME280;19250;42.646;26.980;2023-05-16T07:11:26;98750.41;;;21.62;61.80
12799;BME280;19250;42.646;26.980;2023-05-16T07:13:54;98759.88;;;21.94;60.94
12799;BME280;19250;42.646;26.980;2023-05-16T07:16:21;98777.69;;;21.67;61.07
12799;BME280;19250;42.646;26.980;2023-05-16T07:18:48;98791.63;;;21.70;61.42
12799;BME280;19250;42.646;26.980;2023-05-16T07:21:17;98796.59;;;21.97;59.09
12799;BME280;19250;42.646;26.980;2023-05-16T07:23:44;98790.78;;;22.28;57.28
12799;BME280;19250;42.646;26.980;2023-05-16T07:26:12;98795.59;;;21.56;61.62
12799;BME280;19250;42.646;26.980;2023-05-16T07:28:40;98799.84;;;21.52;63.55
12799;BME280;19250;42.646;26.980;2023-05-16T07:31:07;98788.66;;;21.84;60.99
12799;BME280;19250;42.646;26.980;2023-05-16T07:33:34;98801.31;;;22.13;57.05
12799;BME280;19250;42.646;26.980;2023-05-16T07:36:02;98805.78;;;22.19;55.19
12799;BME280;19250;42.646;26.980;2023-05-16T07:38:29;98814.16;;;21.83;58.83
12799;BME280;19250;42.646;26.980;2023-05-16T07:40:56;98813.97;;;22.07;58.15
12799;BME280;19250;42.646;26.980;2023-05-16T07:43:25;98801.06;;;21.80;57.33
12799;BME280;19250;42.646;26.980;2023-05-16T07:45:52;98802.09;;;22.37;56.40
12799;BME280;19250;42.646;26.980;2023-05-16T07:48:20;98803.31;;;22.17;51.63
12799;BME280;19250;42.646;26.980;2023-05-16T07:50:47;98796.94;;;22.63;47.87
12799;BME280;19250;42.646;26.980;2023-05-16T07:53:14;98792.31;;;23.32;48.43
12799;BME280;19250;42.646;26.980;2023-05-16T07:55:42;98795.84;;;23.33;47.93
12799;BME280;19250;42.646;26.980;2023-05-16T07:58:09;98798.22;;;23.91;48.47
12799;BME280;19250;42.646;26.980;2023-05-16T08:00:38;98806.25;;;24.19;42.02
12799;BME280;19250;42.646;26.980;2023-05-16T08:03:05;98800.19;;;24.12;41.01
12799;BME280;19250;42.646;26.980;2023-05-16T08:05:32;98787.22;;;23.85;39.43
12799;BME280;19250;42.646;26.980;2023-05-16T08:07:59;98792.84;;;23.46;44.00
12799;BME280;19250;42.646;26.980;2023-05-16T08:10:27;98783.13;;;23.66;45.19
12799;BME280;19250;42.646;26.980;2023-05-16T08:12:54;98776.59;;;23.67;44.58
12799;BME280;19250;42.646;26.980;2023-05-16T08:15:21;98783.72;;;24.07;42.66
12799;BME280;19250;42.646;26.980;2023-05-16T08:17:50;98786.31;;;23.80;41.29
12799;BME280;19250;42.646;26.980;2023-05-16T08:20:17;98788.28;;;24.01;42.94
12799;BME280;19250;42.646;26.980;2023-05-16T08:22:44;98790.13;;;23.79;40.87
12799;BME280;19250;42.646;26.980;2023-05-16T08:25:11;98784.97;;;24.16;41.22
12799;BME280;19250;42.646;26.980;2023-05-16T08:27:39;98784.88;;;24.49;39.68
12799;BME280;19250;42.646;26.980;2023-05-16T08:30:07;98776.13;;;24.47;39.14
12799;BME280;19250;42.646;26.980;2023-05-16T08:32:36;98781.06;;;23.57;39.86
12799;BME280;19250;42.646;26.980;2023-05-16T08:35:05;98761.59;;;23.48;40.71
12799;BME280;19250;42.646;26.980;2023-05-16T08:37:32;98768.25;;;23.74;39.12
12799;BME280;19250;42.646;26.980;2023-05-16T08:40:00;98765.84;;;23.94;39.37
12799;BME280;19250;42.646;26.980;2023-05-16T08:42:28;98760.28;;;24.44;42.11
12799;BME280;19250;42.646;26.980;2023-05-16T08:44:55;98759.94;;;24.19;41.71
12799;BME280;19250;42.646;26.980;2023-05-16T08:47:23;98767.00;;;24.58;41.83
12799;BME280;19250;42.646;26.980;2023-05-16T08:49:55;98768.75;;;24.91;41.01
12799;BME280;19250;42.646;26.980;2023-05-16T08:52:25;98768.59;;;25.03;40.48
12799;BME280;19250;42.646;26.980;2023-05-16T08:54:54;98773.53;;;25.32;35.92
12799;BME280;19250;42.646;26.980;2023-05-16T08:57:22;98768.47;;;25.46;34.53
12799;BME280;19250;42.646;26.980;2023-05-16T08:59:49;98771.38;;;25.08;30.90
12799;BME280;19250;42.646;26.980;2023-05-16T09:02:18;98759.44;;;25.14;33.76
12799;BME280;19250;42.646;26.980;2023-05-16T09:04:46;98738.28;;;24.77;35.83
12799;BME280;19250;42.646;26.980;2023-05-16T09:07:14;98719.63;;;24.86;36.35
12799;BME280;19250;42.646;26.980;2023-05-16T09:09:42;98717.09;;;24.58;35.81
12799;BME280;19250;42.646;26.980;2023-05-16T09:12:09;98731.31;;;24.00;35.08
12799;BME280;19250;42.646;26.980;2023-05-16T09:14:36;98743.56;;;23.80;35.48
12799;BME280;19250;42.646;26.980;2023-05-16T09:17:03;98743.75;;;23.74;36.46
12799;BME280;19250;42.646;26.980;2023-05-16T09:19:32;98750.13;;;24.01;37.18
12799;BME280;19250;42.646;26.980;2023-05-16T09:22:02;98749.78;;;24.31;38.25
12799;BME280;19250;42.646;26.980;2023-05-16T09:24:29;98743.06;;;25.14;35.36
12799;BME280;19250;42.646;26.980;2023-05-16T09:27:06;98747.50;;;24.71;35.56
12799;BME280;19250;42.646;26.980;2023-05-16T09:29:33;98738.44;;;24.87;35.64
12799;BME280;19250;42.646;26.980;2023-05-16T09:32:03;98726.81;;;25.29;36.73
12799;BME280;19250;42.646;26.980;2023-05-16T09:34:30;98720.41;;;25.13;36.62
12799;BME280;19250;42.646;26.980;2023-05-16T09:36:58;98737.72;;;25.56;35.73
12799;BME280;19250;42.646;26.980;2023-05-16T09:39:26;98745.13;;;25.60;36.12
12799;BME280;19250;42.646;26.980;2023-05-16T09:41:53;98726.25;;;25.27;35.33
12799;BME280;19250;42.646;26.980;2023-05-16T09:44:21;98715.56;;;25.20;36.01
12799;BME280;19250;42.646;26.980;2023-05-16T09:46:48;98709.28;;;26.45;34.82
12799;BME280;19250;42.646;26.980;2023-05-16T09:49:15;98699.78;;;26.63;33.72
12799;BME280;19250;42.646;26.980;2023-05-16T09:51:43;98710.38;;;25.92;34.65
12799;BME280;19250;42.646;26.980;2023-05-16T09:54:10;98712.59;;;26.01;34.98
12799;BME280;19250;42.646;26.980;2023-05-16T09:56:47;98699.00;;;25.32;35.64
12799;BME280;19250;42.646;26.980;2023-05-16T09:59:15;98703.94;;;25.67;36.66
12799;BME280;19250;42.646;26.980;2023-05-16T10:01:44;98702.22;;;26.03;35.87
12799;BME280;19250;42.646;26.980;2023-05-16T10:04:11;98697.28;;;25.99;35.10
12799;BME280;19250;42.646;26.980;2023-05-16T10:06:41;98699.22;;;26.04;35.48
12799;BME280;19250;42.646;26.980;2023-05-16T10:09:10;98664.03;;;25.66;35.41
12799;BME280;19250;42.646;26.980;2023-05-16T10:11:41;98686.81;;;25.44;36.26
12799;BME280;19250;42.646;26.980;2023-05-16T10:14:10;98697.00;;;25.49;35.26
12799;BME280;19250;42.646;26.980;2023-05-16T10:16:41;98687.41;;;25.93;34.20
12799;BME280;19250;42.646;26.980;2023-05-16T10:19:10;98676.91;;;26.17;33.16
12799;BME280;19250;42.646;26.980;2023-05-16T10:21:39;98679.06;;;26.87;32.03
12799;BME280;19250;42.646;26.980;2023-05-16T10:24:14;98678.53;;;27.06;31.52
12799;BME280;19250;42.646;26.980;2023-05-16T10:26:43;98664.75;;;26.60;32.78
12799;BME280;19250;42.646;26.980;2023-05-16T10:29:11;98662.00;;;26.65;33.37
12799;BME280;19250;42.646;26.980;2023-05-16T10:31:38;98649.97;;;26.51;31.55
12799;BME280;19250;42.646;26.980;2023-05-16T10:34:06;98656.50;;;25.88;31.59
12799;BME280;19250;42.646;26.980;2023-05-16T10:36:36;98646.94;;;25.85;32.38
12799;BME280;19250;42.646;26.980;2023-05-16T10:39:04;98647.25;;;26.71;31.34
12799;BME280;19250;42.646;26.980;2023-05-16T10:41:33;98644.13;;;26.17;30.77
12799;BME280;19250;42.646;26.980;2023-05-16T10:44:00;98631.31;;;25.71;30.94
12799;BME280;19250;42.646;26.980;2023-05-16T10:46:30;98636.59;;;25.45;31.27
12799;BME280;19250;42.646;26.980;2023-05-16T10:48:57;98626.94;;;25.33;31.78
12799;BME280;19250;42.646;26.980;2023-05-16T10:51:37;98625.75;;;26.13;29.54
12799;BME280;19250;42.646;26.980;2023-05-16T10:54:06;98615.72;;;26.23;29.41
12799;BME280;19250;42.646;26.980;2023-05-16T10:56:34;98607.28;;;26.70;29.38
12799;BME280;19250;42.646;26.980;2023-05-16T10:59:01;98610.59;;;26.77;29.41
12799;BME280;19250;42.646;26.980;2023-05-16T11:01:31;98608.41;;;26.69;29.67
12799;BME280;19250;42.646;26.980;2023-05-16T11:04:09;98599.63;;;26.62;29.96
12799;BME280;19250;42.646;26.980;2023-05-16T11:06:46;98598.06;;;26.81;29.37
12799;BME280;19250;42.646;26.980;2023-05-16T11:09:24;98596.13;;;26.92;28.61
12799;BME280;19250;42.646;26.980;2023-05-16T11:11:59;98614.25;;;26.11;29.10
12799;BME280;19250;42.646;26.980;2023-05-16T11:14:33;98606.75;;;26.53;28.79
12799;BME280;19250;42.646;26.980;2023-05-16T11:17:06;98591.09;;;25.61;30.56
12799;BME280;19250;42.646;26.980;2023-05-16T11:19:34;98614.88;;;26.28;30.25
12799;BME280;19250;42.646;26.980;2023-05-16T11:22:11;98625.31;;;25.79;30.63
12799;BME280;19250;42.646;26.980;2023-05-16T11:24:52;98630.03;;;25.93;30.23
12799;BME280;19250;42.646;26.980;2023-05-16T11:27:22;98625.38;;;25.89;30.13
12799;BME280;19250;42.646;26.980;2023-05-16T11:29:49;98624.06;;;26.02;29.79
12799;BME280;19250;42.646;26.980;2023-05-16T11:32:21;98622.56;;;26.46;29.65
12799;BME280;19250;42.646;26.980;2023-05-16T11:34:49;98617.47;;;27.05;28.91
12799;BME280;19250;42.646;26.980;2023-05-16T11:37:18;98611.13;;;26.59;29.42
12799;BME280;19250;42.646;26.980;2023-05-16T11:39:46;98609.59;;;26.06;29.82
12799;BME280;19250;42.646;26.980;2023-05-16T11:42:13;98588.78;;;25.90;30.14
12799;BME280;19250;42.646;26.980;2023-05-16T11:44:41;98586.81;;;25.80;30.38
12799;BME280;19250;42.646;26.980;2023-05-16T11:47:08;98594.09;;;25.60;30.95
12799;BME280;19250;42.646;26.980;2023-05-16T11:49:35;98620.75;;;25.89;29.75
12799;BME280;19250;42.646;26.980;2023-05-16T11:52:03;98618.75;;;26.42;28.40
12799;BME280;19250;42.646;26.980;2023-05-16T11:54:33;98597.28;;;26.04;29.13
12799;BME280;19250;42.646;26.980;2023-05-16T11:57:01;98600.06;;;26.14;29.38
12799;BME280;19250;42.646;26.980;2023-05-16T11:59:28;98612.22;;;25.81;29.62
12799;BME280;19250;42.646;26.980;2023-05-16T12:01:55;98613.09;;;25.08;30.29
12799;BME280;19250;42.646;26.980;2023-05-16T12:04:23;98621.88;;;25.10;30.93
12799;BME280;19250;42.646;26.980;2023-05-16T12:07:00;98617.16;;;25.42;31.29
12799;BME280;19250;42.646;26.980;2023-05-16T12:09:29;98610.66;;;26.00;30.39
12799;BME280;19250;42.646;26.980;2023-05-16T12:11:58;98614.63;;;26.29;30.62
12799;BME280;19250;42.646;26.980;2023-05-16T12:14:25;98591.69;;;27.36;30.28
12799;BME280;19250;42.646;26.980;2023-05-16T12:16:52;98587.06;;;28.65;28.60
12799;BME280;19250;42.646;26.980;2023-05-16T12:19:20;98593.69;;;29.27;27.92
12799;BME280;19250;42.646;26.980;2023-05-16T12:21:51;98608.09;;;29.42;27.81
12799;BME280;19250;42.646;26.980;2023-05-16T12:24:19;98608.69;;;28.28;29.37
12799;BME280;19250;42.646;26.980;2023-05-16T12:26:46;98607.81;;;28.32;29.08
12799;BME280;19250;42.646;26.980;2023-05-16T12:29:15;98610.84;;;27.31;30.20
12799;BME280;19250;42.646;26.980;2023-05-16T12:31:42;98597.22;;;27.11;29.99
12799;BME280;19250;42.646;26.980;2023-05-16T12:34:16;98602.81;;;26.19;30.70
12799;BME280;19250;42.646;26.980;2023-05-16T12:36:49;98606.19;;;25.79;31.42
12799;BME280;19250;42.646;26.980;2023-05-16T12:39:17;98596.31;;;26.40;31.34
12799;BME280;19250;42.646;26.980;2023-05-16T12:41:44;98590.38;;;26.98;30.15
12799;BME280;19250;42.646;26.980;2023-05-16T12:44:12;98591.13;;;27.54;29.00
12799;BME280;19250;42.646;26.980;2023-05-16T12:46:45;98577.59;;;27.88;27.91
12799;BME280;19250;42.646;26.980;2023-05-16T12:49:13;98582.38;;;28.66;26.75
12799;BME280;19250;42.646;26.980;2023-05-16T12:51:48;98568.34;;;28.28;27.35
12799;BME280;19250;42.646;26.980;2023-05-16T12:54:15;98574.91;;;27.73;28.12